createdAt,value
2023-02-28T00:00:17.693Z,-77
2023-02-28T00:02:45.441Z,-78
2023-02-28T00:05:13.326Z,-78
2023-02-28T00:07:43.166Z,-77
2023-02-28T00:10:11.346Z,-77
2023-02-28T00:12:39.122Z,-78
2023-02-28T00:15:07.874Z,-78
2023-02-28T00:17:37.479Z,-78
2023-02-28T00:20:05.553Z,-78
2023-02-28T00:22:33.561Z,-78
2023-02-28T00:25:01.371Z,-78
2023-02-28T00:27:29.475Z,-78
2023-02-28T00:29:57.214Z,-78
2023-02-28T00:32:25.208Z,-78
2023-02-28T00:34:52.982Z,-78
2023-02-28T00:37:22.044Z,-78
2023-02-28T00:39:50.214Z,-77
2023-02-28T00:42:17.996Z,-78
2023-02-28T00:44:45.909Z,-77
2023-02-28T00:47:13.660Z,-78
2023-02-28T00:49:41.772Z,-79
2023-02-28T00:52:11.360Z,-78
2023-02-28T00:54:40.945Z,-78
2023-02-28T00:57:10.615Z,-78
2023-02-28T00:59:39.061Z,-78
2023-02-28T01:02:07.343Z,-78
2023-02-28T01:04:35.184Z,-78
2023-02-28T01:07:02.909Z,-78
2023-02-28T01:09:30.980Z,-78
2023-02-28T01:11:58.769Z,-78
2023-02-28T01:14:28.307Z,-78
2023-02-28T01:16:56.147Z,-78
2023-02-28T01:19:24.777Z,-78
2023-02-28T01:21:53.388Z,-78
2023-02-28T01:24:21.861Z,-78
2023-02-28T01:26:49.578Z,-78
2023-02-28T01:29:17.334Z,-78
2023-02-28T01:31:45.272Z,-79
2023-02-28T01:34:13.363Z,-79
2023-02-28T01:36:41.140Z,-78
2023-02-28T01:39:09.315Z,-77
2023-02-28T01:41:38.016Z,-78
2023-02-28T01:44:05.950Z,-77
2023-02-28T01:46:33.836Z,-78
2023-02-28T01:49:01.814Z,-78
2023-02-28T01:51:30.125Z,-79
2023-02-28T01:53:58.106Z,-78
2023-02-28T01:56:26.745Z,-78
2023-02-28T01:58:54.633Z,-78
2023-02-28T02:01:23.926Z,-78
2023-02-28T02:03:56.184Z,-78
2023-02-28T02:06:28.186Z,-78
2023-02-28T02:08:55.934Z,-77
2023-02-28T02:11:23.800Z,-77
2023-02-28T02:13:53.846Z,-78
2023-02-28T02:16:22.774Z,-78
2023-02-28T02:18:51.016Z,-78
2023-02-28T02:21:19.089Z,-78
2023-02-28T02:23:46.887Z,-78
2023-02-28T02:26:14.650Z,-78
2023-02-28T02:28:42.699Z,-78
2023-02-28T02:31:10.602Z,-78
2023-02-28T02:33:39.516Z,-78
2023-02-28T02:36:10.384Z,-78
2023-02-28T02:38:38.790Z,-78
2023-02-28T02:41:08.370Z,-78
2023-02-28T02:43:36.143Z,-78
2023-02-28T02:46:03.933Z,-78
2023-02-28T02:48:31.720Z,-78
2023-02-28T02:50:59.484Z,-78
2023-02-28T02:53:28.666Z,-78
2023-02-28T02:55:56.400Z,-78
2023-02-28T02:58:24.299Z,-78
2023-02-28T03:00:52.030Z,-79
2023-02-28T03:03:21.744Z,-77
2023-02-28T03:05:49.596Z,-78
2023-02-28T03:08:17.320Z,-77
2023-02-28T03:10:45.364Z,-77
2023-02-28T03:13:13.560Z,-78
2023-02-28T03:15:41.449Z,-78
2023-02-28T03:18:11.496Z,-78
2023-02-28T03:20:39.636Z,-78
2023-02-28T03:23:08.715Z,-78
2023-02-28T03:25:39.475Z,-78
2023-02-28T03:28:07.242Z,-78
2023-02-28T03:30:35.228Z,-78
2023-02-28T03:33:03.214Z,-78
2023-02-28T03:35:31.012Z,-78
2023-02-28T03:37:58.793Z,-78
2023-02-28T03:40:26.679Z,-78
2023-02-28T03:42:54.594Z,-78
2023-02-28T03:45:23.517Z,-78
2023-02-28T03:47:51.624Z,-78
2023-02-28T03:50:19.521Z,-78
2023-02-28T03:52:47.341Z,-78
2023-02-28T03:55:15.300Z,-78
2023-02-28T03:57:43.073Z,-78
2023-02-28T04:00:10.837Z,-78
2023-02-28T04:02:41.185Z,-77
2023-02-28T04:05:08.959Z,-78
2023-02-28T04:07:37.759Z,-78
2023-02-28T04:10:06.061Z,-78
2023-02-28T04:12:33.944Z,-78
2023-02-28T04:15:01.722Z,-78
2023-02-28T04:17:29.523Z,-78
2023-02-28T04:19:58.528Z,-78
2023-02-28T04:22:28.031Z,-78
2023-02-28T04:24:55.849Z,-78
2023-02-28T04:27:25.389Z,-78
2023-02-28T04:29:53.348Z,-79
2023-02-28T04:32:21.208Z,-78
2023-02-28T04:34:49.031Z,-78
2023-02-28T04:37:17.081Z,-78
2023-02-28T04:39:44.985Z,-78
2023-02-28T04:42:12.825Z,-78
2023-02-28T04:44:40.969Z,-78
2023-02-28T04:47:08.784Z,-78
2023-02-28T04:49:36.701Z,-78
2023-02-28T04:52:04.543Z,-79
2023-02-28T04:54:32.281Z,-78
2023-02-28T04:57:00.130Z,-79
2023-02-28T04:59:27.973Z,-78
2023-02-28T05:01:56.721Z,-79
2023-02-28T05:04:24.501Z,-79
2023-02-28T05:06:52.313Z,-78
2023-02-28T05:09:20.096Z,-78
2023-02-28T05:11:48.051Z,-78
2023-02-28T05:14:15.785Z,-78
2023-02-28T05:16:43.826Z,-78
2023-02-28T05:19:11.684Z,-76
2023-02-28T05:21:39.817Z,-76
2023-02-28T05:24:08.661Z,-76
2023-02-28T05:26:37.048Z,-76
2023-02-28T05:29:04.812Z,-76
2023-02-28T05:31:34.367Z,-76
2023-02-28T05:34:02.230Z,-76
2023-02-28T05:36:29.993Z,-74
2023-02-28T05:38:57.795Z,-72
2023-02-28T05:41:25.751Z,-76
2023-02-28T05:43:53.490Z,-76
2023-02-28T05:46:21.291Z,-76
2023-02-28T05:51:23.284Z,-84
2023-02-28T05:53:51.095Z,-84
2023-02-28T05:56:19.439Z,-84
2023-02-28T05:58:48.088Z,-84
2023-02-28T06:01:16.014Z,-84
2023-02-28T06:03:43.829Z,-84
2023-02-28T06:06:11.741Z,-84
2023-02-28T06:08:39.461Z,-83
2023-02-28T06:11:08.062Z,-84
2023-02-28T06:13:35.992Z,-84
2023-02-28T06:16:03.810Z,-84
2023-02-28T06:18:31.702Z,-83
2023-02-28T06:20:59.614Z,-84
2023-02-28T06:23:27.705Z,-83
2023-02-28T06:25:59.202Z,-84
2023-02-28T06:28:27.351Z,-84
2023-02-28T06:30:55.276Z,-84
2023-02-28T06:33:23.151Z,-84
2023-02-28T06:35:51.087Z,-84
2023-02-28T06:38:19.424Z,-84
2023-02-28T06:40:47.294Z,-84
2023-02-28T06:43:16.650Z,-84
2023-02-28T06:45:44.556Z,-84
2023-02-28T06:48:12.656Z,-84
2023-02-28T06:50:40.554Z,-84
2023-02-28T06:53:08.477Z,-83
2023-02-28T06:55:36.387Z,-83
2023-02-28T06:58:04.275Z,-84
2023-02-28T07:00:32.187Z,-84
2023-02-28T07:03:00.100Z,-84
2023-02-28T07:05:27.967Z,-84
2023-02-28T07:07:55.905Z,-84
2023-02-28T07:10:23.772Z,-83
2023-02-28T07:12:52.483Z,-84
2023-02-28T07:15:20.292Z,-84
2023-02-28T07:17:48.120Z,-84
2023-02-28T07:20:15.990Z,-83
2023-02-28T07:22:43.882Z,-84
2023-02-28T07:25:11.682Z,-84
2023-02-28T07:27:39.494Z,-83
2023-02-28T07:30:07.401Z,-83
2023-02-28T07:32:38.725Z,-84
2023-02-28T07:35:06.516Z,-84
2023-02-28T07:37:37.541Z,-84
2023-02-28T07:40:07.368Z,-84
2023-02-28T07:42:35.298Z,-84
2023-02-28T07:45:03.346Z,-84
2023-02-28T07:47:31.292Z,-84
2023-02-28T07:49:59.384Z,-83
2023-02-28T07:52:29.802Z,-84
2023-02-28T07:54:57.858Z,-84
2023-02-28T07:57:26.673Z,-84
2023-02-28T07:59:54.748Z,-84
2023-02-28T08:02:22.748Z,-83
2023-02-28T08:04:51.432Z,-84
2023-02-28T08:07:19.269Z,-83
2023-02-28T08:09:47.179Z,-84
2023-02-28T08:12:15.898Z,-84
2023-02-28T08:14:43.798Z,-84
2023-02-28T08:17:11.682Z,-84
2023-02-28T08:19:39.576Z,-83
2023-02-28T08:22:07.504Z,-83
2023-02-28T08:24:35.449Z,-84
2023-02-28T08:27:03.270Z,-84
2023-02-28T08:29:31.316Z,-83
2023-02-28T08:32:00.048Z,-83
2023-02-28T08:34:28.075Z,-83
2023-02-28T08:36:55.958Z,-84
2023-02-28T08:39:23.705Z,-84
2023-02-28T08:42:02.179Z,-84
2023-02-28T08:44:33.528Z,-83
2023-02-28T08:47:01.393Z,-84
2023-02-28T08:49:29.753Z,-83
2023-02-28T08:51:58.262Z,-84
2023-02-28T08:54:26.164Z,-83
2023-02-28T08:56:54.096Z,-84
2023-02-28T08:59:22.057Z,-84
2023-02-28T09:01:49.993Z,-83
2023-02-28T09:04:19.932Z,-84
2023-02-28T09:06:49.739Z,-83
2023-02-28T09:09:17.599Z,-83
2023-02-28T09:11:45.472Z,-84
2023-02-28T09:14:13.345Z,-83
2023-02-28T09:16:41.324Z,-83
2023-02-28T09:19:09.395Z,-84
2023-02-28T09:21:37.267Z,-83
2023-02-28T09:24:05.195Z,-83
2023-02-28T09:26:39.061Z,-83
2023-02-28T09:29:12.111Z,-84
2023-02-28T09:31:39.959Z,-83
2023-02-28T09:34:07.967Z,-83
2023-02-28T09:36:44.733Z,-84
2023-02-28T09:39:13.899Z,-83
2023-02-28T09:41:48.601Z,-84
2023-02-28T09:44:16.510Z,-83
2023-02-28T09:46:44.378Z,-84
2023-02-28T09:49:12.176Z,-84
2023-02-28T09:51:40.180Z,-83
2023-02-28T09:54:08.064Z,-83
2023-02-28T09:56:35.993Z,-83
2023-02-28T09:59:03.928Z,-84
2023-02-28T10:01:32.043Z,-83
2023-02-28T10:04:00.158Z,-84
2023-02-28T10:06:27.924Z,-83
2023-02-28T10:08:55.752Z,-84
2023-02-28T10:11:25.051Z,-83
2023-02-28T10:13:53.608Z,-84
2023-02-28T10:16:21.443Z,-84
2023-02-28T10:18:49.276Z,-83
2023-02-28T10:21:17.132Z,-84
2023-02-28T10:23:46.097Z,-84
2023-02-28T10:26:14.080Z,-84
2023-02-28T10:28:41.956Z,-83
2023-02-28T10:31:09.822Z,-83
2023-02-28T10:33:37.684Z,-83
2023-02-28T10:36:07.787Z,-84
2023-02-28T10:38:35.678Z,-83
2023-02-28T10:41:03.518Z,-84
2023-02-28T10:43:31.288Z,-84
2023-02-28T10:45:59.388Z,-84
2023-02-28T10:48:27.216Z,-83
2023-02-28T10:50:57.879Z,-84
2023-02-28T10:53:26.024Z,-83
2023-02-28T10:55:53.889Z,-83
2023-02-28T10:58:21.682Z,-83
2023-02-28T11:00:49.502Z,-85
2023-02-28T11:03:17.393Z,-84
2023-02-28T11:05:45.184Z,-83
2023-02-28T11:08:13.716Z,-83
2023-02-28T11:10:41.550Z,-83
2023-02-28T11:13:09.458Z,-83
2023-02-28T11:15:37.228Z,-84
2023-02-28T11:18:05.021Z,-83
2023-02-28T11:20:32.877Z,-83
2023-02-28T11:23:00.610Z,-83
2023-02-28T11:25:28.400Z,-83
2023-02-28T11:27:56.161Z,-83
2023-02-28T11:30:23.979Z,-83
2023-02-28T11:32:51.846Z,-84
2023-02-28T11:35:20.962Z,-83
2023-02-28T11:37:48.764Z,-83
2023-02-28T11:40:16.682Z,-84
2023-02-28T11:42:44.626Z,-83
2023-02-28T11:45:12.961Z,-83
2023-02-28T11:47:40.818Z,-83
2023-02-28T11:50:08.664Z,-76
2023-02-28T11:52:36.523Z,-76
2023-02-28T11:55:04.375Z,-76
2023-02-28T11:57:32.173Z,-76
2023-02-28T12:00:02.092Z,-77
2023-02-28T12:02:30.265Z,-76
2023-02-28T12:04:58.163Z,-76
2023-02-28T12:07:27.336Z,-76
2023-02-28T12:09:55.175Z,-76
2023-02-28T12:12:24.502Z,-75
2023-02-28T12:14:53.113Z,-76
2023-02-28T12:17:21.217Z,-76
2023-02-28T12:19:48.999Z,-77
2023-02-28T12:22:16.815Z,-76
2023-02-28T12:24:44.642Z,-76
2023-02-28T12:27:12.469Z,-77
2023-02-28T12:29:40.218Z,-77
2023-02-28T12:32:08.201Z,-76
2023-02-28T12:34:36.110Z,-76
2023-02-28T12:37:04.010Z,-76
2023-02-28T12:39:34.437Z,-75
2023-02-28T12:42:08.784Z,-76
2023-02-28T12:44:36.581Z,-76
2023-02-28T12:47:05.804Z,-75
2023-02-28T12:49:33.772Z,-76
2023-02-28T12:52:01.962Z,-76
2023-02-28T12:54:29.822Z,-75
2023-02-28T12:56:57.720Z,-75
2023-02-28T12:59:25.528Z,-76
2023-02-28T13:01:53.279Z,-76
2023-02-28T13:04:21.226Z,-76
2023-02-28T13:06:49.062Z,-76
2023-02-28T13:09:17.001Z,-75
2023-02-28T13:11:44.781Z,-76
2023-02-28T13:14:12.654Z,-76
2023-02-28T13:16:43.289Z,-76
2023-02-28T13:19:11.096Z,-76
2023-02-28T13:21:38.949Z,-77
2023-02-28T13:24:07.179Z,-76
2023-02-28T13:26:35.004Z,-76
2023-02-28T13:29:02.793Z,-77
2023-02-28T13:31:30.904Z,-76
2023-02-28T13:33:59.036Z,-76
2023-02-28T13:36:26.849Z,-76
2023-02-28T13:38:54.863Z,-76
2023-02-28T13:41:22.654Z,-77
2023-02-28T13:43:50.403Z,-76
2023-02-28T13:46:18.176Z,-76
2023-02-28T13:48:46.198Z,-76
2023-02-28T13:51:13.945Z,-75
2023-02-28T13:53:41.732Z,-76
2023-02-28T13:56:09.528Z,-77
2023-02-28T13:58:37.311Z,-77
2023-02-28T14:01:05.593Z,-77
2023-02-28T14:03:33.810Z,-77
2023-02-28T14:06:01.661Z,-76
2023-02-28T14:08:29.484Z,-77
2023-02-28T14:10:57.248Z,-76
2023-02-28T14:13:25.037Z,-74
2023-02-28T14:15:53.292Z,-77
2023-02-28T14:18:21.870Z,-76
2023-02-28T14:20:49.773Z,-75
2023-02-28T14:23:17.530Z,-77
2023-02-28T14:25:45.343Z,-76
2023-02-28T14:28:13.215Z,-76
2023-02-28T14:30:40.934Z,-77
2023-02-28T14:33:08.669Z,-76
2023-02-28T14:35:36.432Z,-76
2023-02-28T14:38:04.197Z,-76
2023-02-28T14:40:31.985Z,-75
2023-02-28T14:43:00.648Z,-76
2023-02-28T14:45:28.447Z,-76
2023-02-28T14:47:56.283Z,-76
2023-02-28T14:50:24.080Z,-77
2023-02-28T14:52:51.927Z,-77
2023-02-28T14:55:19.714Z,-77
2023-02-28T14:57:47.677Z,-77
2023-02-28T15:00:15.451Z,-77
2023-02-28T15:02:43.343Z,-76
2023-02-28T15:05:13.503Z,-76
2023-02-28T15:07:41.297Z,-77
2023-02-28T15:10:09.085Z,-76
2023-02-28T15:12:36.826Z,-76
2023-02-28T15:15:04.666Z,-77
2023-02-28T15:17:32.436Z,-77
2023-02-28T15:20:00.670Z,-77
2023-02-28T15:22:29.998Z,-74
2023-02-28T15:24:58.109Z,-76
2023-02-28T15:27:25.857Z,-76
2023-02-28T15:29:53.607Z,-76
2023-02-28T15:32:21.492Z,-77
2023-02-28T15:34:49.363Z,-77
2023-02-28T15:37:18.241Z,-77
2023-02-28T15:39:46.436Z,-75
2023-02-28T15:42:14.340Z,-77
2023-02-28T15:44:42.109Z,-76
2023-02-28T15:47:10.616Z,-77
2023-02-28T15:49:44.868Z,-76
2023-02-28T15:52:13.181Z,-76
2023-02-28T15:54:40.931Z,-77
2023-02-28T15:57:09.544Z,-75
2023-02-28T15:59:37.375Z,-77
2023-02-28T16:02:05.418Z,-76
2023-02-28T16:04:33.300Z,-76
2023-02-28T16:07:01.293Z,-76
2023-02-28T16:09:33.064Z,-75
2023-02-28T16:12:02.386Z,-76
2023-02-28T16:14:31.190Z,-76
2023-02-28T16:16:59.095Z,-76
2023-02-28T16:19:27.069Z,-76
2023-02-28T16:21:54.828Z,-76
2023-02-28T16:24:22.765Z,-76
2023-02-28T16:26:50.617Z,-76
2023-02-28T16:29:18.315Z,-76
2023-02-28T16:31:46.116Z,-76
2023-02-28T16:34:14.012Z,-75
2023-02-28T16:36:42.092Z,-76
2023-02-28T16:39:09.830Z,-77
2023-02-28T16:41:37.836Z,-77
2023-02-28T16:44:05.657Z,-77
2023-02-28T16:46:33.648Z,-77
2023-02-28T16:49:01.472Z,-77
2023-02-28T16:51:29.572Z,-76
2023-02-28T16:53:57.677Z,-77
2023-02-28T16:56:25.578Z,-77
2023-02-28T16:58:53.416Z,-76
2023-02-28T17:01:22.977Z,-77
2023-02-28T17:03:50.938Z,-75
2023-02-28T17:06:19.003Z,-77
2023-02-28T17:08:46.718Z,-77
2023-02-28T17:11:14.529Z,-77
2023-02-28T17:13:42.458Z,-77
2023-02-28T17:16:10.509Z,-76
2023-02-28T17:18:39.999Z,-77
2023-02-28T17:21:07.772Z,-77
2023-02-28T17:23:35.604Z,-76
2023-02-28T17:26:03.510Z,-77
2023-02-28T17:28:31.249Z,-77
2023-02-28T17:30:59.050Z,-77
2023-02-28T17:33:26.950Z,-77
2023-02-28T17:35:54.814Z,-76
2023-02-28T17:38:24.058Z,-76
2023-02-28T17:40:52.504Z,-75
2023-02-28T17:43:20.321Z,-76
2023-02-28T17:45:48.066Z,-77
2023-02-28T17:48:16.166Z,-77
2023-02-28T17:50:43.940Z,-77
2023-02-28T17:53:11.749Z,-77
2023-02-28T17:55:39.871Z,-76
2023-02-28T17:58:07.652Z,-77
2023-02-28T18:00:35.790Z,-77
2023-02-28T18:03:03.816Z,-76
2023-02-28T18:05:32.218Z,-77
2023-02-28T18:07:59.991Z,-70
2023-02-28T18:10:28.377Z,-71
2023-02-28T18:12:56.320Z,-70
2023-02-28T18:15:24.160Z,-70
2023-02-28T18:17:51.941Z,-71
2023-02-28T18:20:19.675Z,-70
2023-02-28T18:22:47.614Z,-70
2023-02-28T18:25:17.200Z,-70
2023-02-28T18:27:54.244Z,-70
2023-02-28T18:30:22.340Z,-70
2023-02-28T18:32:50.115Z,-70
2023-02-28T18:35:35.095Z,-71
2023-02-28T18:38:02.995Z,-70
2023-02-28T18:40:30.831Z,-70
2023-02-28T18:42:58.615Z,-68
2023-02-28T18:45:26.351Z,-68
2023-02-28T18:47:54.147Z,-68
2023-02-28T18:50:21.915Z,-68
2023-02-28T18:52:49.721Z,-69
2023-02-28T18:55:19.040Z,-68
2023-02-28T18:57:47.010Z,-68
2023-02-28T19:00:14.765Z,-68
2023-02-28T19:02:43.063Z,-68
2023-02-28T19:05:12.254Z,-68
2023-02-28T19:07:40.938Z,-68
2023-02-28T19:10:08.710Z,-68
2023-02-28T19:12:36.562Z,-68
2023-02-28T19:15:04.451Z,-68
2023-02-28T19:17:32.348Z,-68
2023-02-28T19:20:01.474Z,-68
2023-02-28T19:22:29.254Z,-68
2023-02-28T19:24:57.051Z,-68
2023-02-28T19:27:24.847Z,-69
2023-02-28T19:29:52.634Z,-69
2023-02-28T19:32:20.474Z,-68
2023-02-28T19:34:48.324Z,-68
2023-02-28T19:37:16.101Z,-68
2023-02-28T19:39:43.914Z,-68
2023-02-28T19:42:11.703Z,-69
2023-02-28T19:44:39.493Z,-68
2023-02-28T19:47:07.267Z,-69
2023-02-28T19:49:35.010Z,-68
2023-02-28T19:52:02.913Z,-68
2023-02-28T19:54:30.681Z,-68
2023-02-28T19:56:58.683Z,-68
2023-02-28T19:59:38.165Z,-69
2023-02-28T20:02:06.838Z,-68
2023-02-28T20:04:34.707Z,-68
2023-02-28T20:07:02.823Z,-69
2023-02-28T20:09:30.626Z,-69
2023-02-28T20:11:59.523Z,-69
2023-02-28T20:14:27.329Z,-68
2023-02-28T20:16:57.152Z,-68
2023-02-28T20:19:25.944Z,-68
2023-02-28T20:21:53.875Z,-68
2023-02-28T20:24:25.811Z,-68
2023-02-28T20:26:53.642Z,-68
2023-02-28T20:29:21.392Z,-68
2023-02-28T20:31:49.255Z,-68
2023-02-28T20:34:17.840Z,-68
2023-02-28T20:36:45.660Z,-68
2023-02-28T20:39:13.626Z,-68
2023-02-28T20:41:41.360Z,-68
2023-02-28T20:44:09.142Z,-68
2023-02-28T20:46:36.984Z,-68
2023-02-28T20:49:04.761Z,-68
2023-02-28T20:51:32.512Z,-68
2023-02-28T20:54:00.270Z,-68
2023-02-28T20:56:28.378Z,-68
2023-02-28T20:58:58.025Z,-69
2023-02-28T21:01:26.829Z,-68
2023-02-28T21:03:54.756Z,-68
2023-02-28T21:06:22.580Z,-68
2023-02-28T21:08:50.331Z,-68
2023-02-28T21:11:18.127Z,-68
2023-02-28T21:13:46.164Z,-68
2023-02-28T21:16:14.071Z,-68
2023-02-28T21:18:41.922Z,-69
2023-02-28T21:21:09.934Z,-69
2023-02-28T21:23:37.734Z,-69
2023-02-28T21:26:05.657Z,-69
2023-02-28T21:28:33.427Z,-69
2023-02-28T21:31:01.214Z,-68
2023-02-28T21:33:30.358Z,-69
2023-02-28T21:35:58.401Z,-69
2023-02-28T21:38:26.289Z,-69
2023-02-28T21:40:54.102Z,-69
2023-02-28T21:43:21.867Z,-69
2023-02-28T21:45:49.821Z,-71
2023-02-28T21:48:17.683Z,-69
2023-02-28T21:50:45.429Z,-69
2023-02-28T21:53:13.465Z,-69
2023-02-28T21:55:41.298Z,-69
2023-02-28T21:58:09.235Z,-69
2023-02-28T22:00:37.208Z,-68
2023-02-28T22:03:05.725Z,-69
2023-02-28T22:05:34.953Z,-69
2023-02-28T22:08:02.706Z,-69
2023-02-28T22:10:30.534Z,-68
2023-02-28T22:13:01.788Z,-69
2023-02-28T22:15:29.541Z,-69
2023-02-28T22:17:57.294Z,-69
2023-02-28T22:20:25.055Z,-69
2023-02-28T22:22:52.909Z,-69
2023-02-28T22:25:20.666Z,-69
2023-02-28T22:27:48.430Z,-69
2023-02-28T22:30:16.353Z,-69
2023-02-28T22:32:44.100Z,-69
2023-02-28T22:35:11.916Z,-68
2023-02-28T22:37:39.769Z,-68
2023-02-28T22:40:07.491Z,-68
2023-02-28T22:42:35.441Z,-69
2023-02-28T22:45:03.230Z,-69
2023-02-28T22:47:31.039Z,-69
2023-02-28T22:49:58.793Z,-70
2023-02-28T22:52:26.633Z,-70
2023-02-28T22:54:54.713Z,-69
2023-02-28T22:57:22.820Z,-70
2023-02-28T22:59:50.595Z,-69
2023-02-28T23:02:18.469Z,-69
2023-02-28T23:04:46.344Z,-69
2023-02-28T23:07:14.132Z,-69
2023-02-28T23:09:41.922Z,-69
2023-02-28T23:12:09.747Z,-70
2023-02-28T23:14:37.613Z,-68
2023-02-28T23:17:05.920Z,-68
2023-02-28T23:19:33.739Z,-68
2023-02-28T23:22:01.519Z,-69
2023-02-28T23:24:29.300Z,-68
2023-02-28T23:26:57.111Z,-69
2023-02-28T23:29:25.110Z,-69
2023-02-28T23:31:53.051Z,-69
2023-02-28T23:34:26.643Z,-69
2023-02-28T23:36:54.642Z,-70
2023-02-28T23:39:22.495Z,-70
2023-02-28T23:41:50.325Z,-68
2023-02-28T23:44:18.226Z,-69
2023-02-28T23:46:46.054Z,-69
2023-02-28T23:49:13.933Z,-69
2023-02-28T23:51:41.699Z,-69
2023-02-28T23:54:10.098Z,-69
2023-02-28T23:56:37.867Z,-69
2023-02-28T23:59:06.397Z,-69
